sensor_id;sensor_type;location;lat;lon;timestamp;P1;durP1;ratioP1;P2;durP2;ratioP2
71202;SDS011;58929;47.490;19.090;2022-12-07T00:02:12;24.70;;;15.93;;
71202;SDS011;58929;47.490;19.090;2022-12-07T00:04:40;36.50;;;17.98;;
71202;SDS011;58929;47.490;19.090;2022-12-07T00:07:09;27.95;;;15.23;;
71202;SDS011;58929;47.490;19.090;2022-12-07T00:09:41;24.95;;;15.40;;
71202;SDS011;58929;47.490;19.090;2022-12-07T00:12:09;27.67;;;18.52;;
71202;SDS011;58929;47.490;19.090;2022-12-07T00:17:04;29.05;;;17.73;;
71202;SDS011;58929;47.490;19.090;2022-12-07T00:19:32;26.60;;;17.63;;
71202;SDS011;58929;47.490;19.090;2022-12-07T00:22:00;29.42;;;16.08;;
71202;SDS011;58929;47.490;19.090;2022-12-07T00:26:57;23.10;;;15.52;;
71202;SDS011;58929;47.490;19.090;2022-12-07T00:29:24;27.33;;;16.75;;
71202;SDS011;58929;47.490;19.090;2022-12-07T00:31:52;23.63;;;15.73;;
71202;SDS011;58929;47.490;19.090;2022-12-07T00:34:22;25.23;;;16.85;;
71202;SDS011;58929;47.490;19.090;2022-12-07T00:36:50;26.70;;;16.90;;
71202;SDS011;58929;47.490;19.090;2022-12-07T00:41:46;24.75;;;15.80;;
71202;SDS011;58929;47.490;19.090;2022-12-07T00:44:15;29.27;;;17.50;;
71202;SDS011;58929;47.490;19.090;2022-12-07T00:46:43;29.50;;;16.13;;
71202;SDS011;58929;47.490;19.090;2022-12-07T00:49:12;28.48;;;18.17;;
71202;SDS011;58929;47.490;19.090;2022-12-07T00:54:07;26.70;;;17.90;;
71202;SDS011;58929;47.490;19.090;2022-12-07T00:56:35;29.15;;;18.40;;
71202;SDS011;58929;47.490;19.090;2022-12-07T00:59:03;28.25;;;17.80;;
71202;SDS011;58929;47.490;19.090;2022-12-07T01:01:33;32.45;;;18.15;;
71202;SDS011;58929;47.490;19.090;2022-12-07T01:04:02;35.95;;;18.35;;
71202;SDS011;58929;47.490;19.090;2022-12-07T01:06:30;35.45;;;18.48;;
71202;SDS011;58929;47.490;19.090;2022-12-07T01:08:58;37.85;;;20.23;;
71202;SDS011;58929;47.490;19.090;2022-12-07T01:11:28;37.30;;;20.50;;
71202;SDS011;58929;47.490;19.090;2022-12-07T01:13:56;37.55;;;21.48;;
71202;SDS011;58929;47.490;19.090;2022-12-07T01:16:25;35.80;;;21.30;;
71202;SDS011;58929;47.490;19.090;2022-12-07T01:18:55;43.28;;;22.60;;
71202;SDS011;58929;47.490;19.090;2022-12-07T01:21:24;36.13;;;20.98;;
71202;SDS011;58929;47.490;19.090;2022-12-07T01:23:52;35.05;;;21.70;;
71202;SDS011;58929;47.490;19.090;2022-12-07T01:26:21;34.92;;;19.80;;
71202;SDS011;58929;47.490;19.090;2022-12-07T01:29:13;30.65;;;19.67;;
71202;SDS011;58929;47.490;19.090;2022-12-07T01:31:50;33.88;;;19.20;;
71202;SDS011;58929;47.490;19.090;2022-12-07T01:36:59;35.35;;;20.15;;
71202;SDS011;58929;47.490;19.090;2022-12-07T01:39:27;37.22;;;20.35;;
71202;SDS011;58929;47.490;19.090;2022-12-07T01:41:55;37.45;;;22.05;;
71202;SDS011;58929;47.490;19.090;2022-12-07T01:44:23;40.92;;;23.27;;
71202;SDS011;58929;47.490;19.090;2022-12-07T01:46:52;49.10;;;24.75;;
71202;SDS011;58929;47.490;19.090;2022-12-07T01:49:22;42.53;;;25.20;;
71202;SDS011;58929;47.490;19.090;2022-12-07T01:51:52;41.60;;;25.63;;
71202;SDS011;58929;47.490;19.090;2022-12-07T01:54:23;45.10;;;24.80;;
71202;SDS011;58929;47.490;19.090;2022-12-07T01:56:53;39.33;;;24.10;;
71202;SDS011;58929;47.490;19.090;2022-12-07T01:59:23;44.67;;;25.33;;
71202;SDS011;58929;47.490;19.090;2022-12-07T02:01:52;47.80;;;25.75;;
71202;SDS011;58929;47.490;19.090;2022-12-07T02:04:21;49.75;;;25.70;;
71202;SDS011;58929;47.490;19.090;2022-12-07T02:06:50;44.97;;;25.42;;
71202;SDS011;58929;47.490;19.090;2022-12-07T02:09:18;45.88;;;26.05;;
71202;SDS011;58929;47.490;19.090;2022-12-07T02:11:48;48.13;;;25.90;;
71202;SDS011;58929;47.490;19.090;2022-12-07T02:14:17;41.53;;;25.25;;
71202;SDS011;58929;47.490;19.090;2022-12-07T02:16:47;47.30;;;26.45;;
71202;SDS011;58929;47.490;19.090;2022-12-07T02:22:11;43.65;;;24.65;;
71202;SDS011;58929;47.490;19.090;2022-12-07T02:24:48;42.20;;;24.10;;
71202;SDS011;58929;47.490;19.090;2022-12-07T02:27:34;45.53;;;25.40;;
71202;SDS011;58929;47.490;19.090;2022-12-07T02:30:06;50.13;;;28.38;;
71202;SDS011;58929;47.490;19.090;2022-12-07T02:32:38;41.63;;;22.83;;
71202;SDS011;58929;47.490;19.090;2022-12-07T02:35:09;37.60;;;21.95;;
71202;SDS011;58929;47.490;19.090;2022-12-07T02:37:39;42.80;;;24.02;;
71202;SDS011;58929;47.490;19.090;2022-12-07T02:40:14;42.63;;;24.33;;
71202;SDS011;58929;47.490;19.090;2022-12-07T02:42:45;39.35;;;22.35;;
71202;SDS011;58929;47.490;19.090;2022-12-07T02:45:15;47.13;;;22.23;;
71202;SDS011;58929;47.490;19.090;2022-12-07T02:47:44;32.42;;;21.55;;
71202;SDS011;58929;47.490;19.090;2022-12-07T02:50:14;39.33;;;22.17;;
71202;SDS011;58929;47.490;19.090;2022-12-07T02:52:42;34.88;;;22.20;;
71202;SDS011;58929;47.490;19.090;2022-12-07T02:55:09;36.63;;;21.67;;
71202;SDS011;58929;47.490;19.090;2022-12-07T02:57:42;38.90;;;21.67;;
71202;SDS011;58929;47.490;19.090;2022-12-07T03:00:15;34.45;;;19.92;;
71202;SDS011;58929;47.490;19.090;2022-12-07T03:02:48;35.80;;;21.13;;
71202;SDS011;58929;47.490;19.090;2022-12-07T03:05:26;33.58;;;20.60;;
71202;SDS011;58929;47.490;19.090;2022-12-07T03:10:26;34.53;;;20.40;;
71202;SDS011;58929;47.490;19.090;2022-12-07T03:12:57;37.35;;;21.38;;
71202;SDS011;58929;47.490;19.090;2022-12-07T03:15:31;37.85;;;21.13;;
71202;SDS011;58929;47.490;19.090;2022-12-07T03:18:01;39.40;;;24.98;;
71202;SDS011;58929;47.490;19.090;2022-12-07T03:20:30;41.95;;;24.90;;
71202;SDS011;58929;47.490;19.090;2022-12-07T03:23:00;33.72;;;20.42;;
71202;SDS011;58929;47.490;19.090;2022-12-07T03:25:28;30.17;;;19.52;;
71202;SDS011;58929;47.490;19.090;2022-12-07T03:27:57;34.40;;;19.85;;
71202;SDS011;58929;47.490;19.090;2022-12-07T03:30:27;30.35;;;18.52;;
71202;SDS011;58929;47.490;19.090;2022-12-07T03:32:58;33.70;;;19.38;;
71202;SDS011;58929;47.490;19.090;2022-12-07T03:35:28;33.40;;;19.00;;
71202;SDS011;58929;47.490;19.090;2022-12-07T03:37:59;28.05;;;18.63;;
71202;SDS011;58929;47.490;19.090;2022-12-07T03:40:29;31.10;;;18.85;;
71202;SDS011;58929;47.490;19.090;2022-12-07T03:42:58;29.38;;;19.30;;
71202;SDS011;58929;47.490;19.090;2022-12-07T03:45:29;33.30;;;18.90;;
71202;SDS011;58929;47.490;19.090;2022-12-07T03:48:02;30.23;;;17.90;;
71202;SDS011;58929;47.490;19.090;2022-12-07T03:50:33;28.08;;;17.83;;
71202;SDS011;58929;47.490;19.090;2022-12-07T03:53:05;27.90;;;17.77;;
71202;SDS011;58929;47.490;19.090;2022-12-07T03:55:36;29.77;;;17.50;;
71202;SDS011;58929;47.490;19.090;2022-12-07T03:58:10;27.00;;;17.20;;
71202;SDS011;58929;47.490;19.090;2022-12-07T04:00:38;26.27;;;17.85;;
71202;SDS011;58929;47.490;19.090;2022-12-07T04:03:07;28.25;;;17.90;;
71202;SDS011;58929;47.490;19.090;2022-12-07T04:05:35;28.13;;;17.73;;
71202;SDS011;58929;47.490;19.090;2022-12-07T04:08:03;31.02;;;18.02;;
71202;SDS011;58929;47.490;19.090;2022-12-07T04:10:31;25.25;;;17.73;;
71202;SDS011;58929;47.490;19.090;2022-12-07T04:12:59;43.30;;;26.65;;
71202;SDS011;58929;47.490;19.090;2022-12-07T04:17:54;28.88;;;19.10;;
71202;SDS011;58929;47.490;19.090;2022-12-07T04:20:24;32.40;;;19.48;;
71202;SDS011;58929;47.490;19.090;2022-12-07T04:22:52;31.63;;;21.10;;
71202;SDS011;58929;47.490;19.090;2022-12-07T04:27:47;38.75;;;23.08;;
71202;SDS011;58929;47.490;19.090;2022-12-07T04:32:43;45.92;;;23.10;;
71202;SDS011;58929;47.490;19.090;2022-12-07T04:37:39;47.60;;;27.98;;
71202;SDS011;58929;47.490;19.090;2022-12-07T04:40:08;42.22;;;26.67;;
71202;SDS011;58929;47.490;19.090;2022-12-07T04:42:37;40.20;;;21.70;;
71202;SDS011;58929;47.490;19.090;2022-12-07T04:45:06;40.55;;;24.35;;
71202;SDS011;58929;47.490;19.090;2022-12-07T04:47:34;33.35;;;21.20;;
71202;SDS011;58929;47.490;19.090;2022-12-07T04:50:02;38.28;;;21.95;;
71202;SDS011;58929;47.490;19.090;2022-12-07T04:52:31;34.35;;;22.20;;
71202;SDS011;58929;47.490;19.090;2022-12-07T04:55:00;43.90;;;22.90;;
71202;SDS011;58929;47.490;19.090;2022-12-07T04:57:28;33.40;;;20.38;;
71202;SDS011;58929;47.490;19.090;2022-12-07T04:59:56;38.00;;;21.58;;
71202;SDS011;58929;47.490;19.090;2022-12-07T05:02:24;28.45;;;18.08;;
71202;SDS011;58929;47.490;19.090;2022-12-07T05:04:52;32.50;;;19.15;;
71202;SDS011;58929;47.490;19.090;2022-12-07T05:09:47;48.60;;;28.48;;
71202;SDS011;58929;47.490;19.090;2022-12-07T05:14:44;30.73;;;19.13;;
71202;SDS011;58929;47.490;19.090;2022-12-07T05:17:12;31.08;;;17.63;;
71202;SDS011;58929;47.490;19.090;2022-12-07T05:19:40;28.92;;;17.42;;
71202;SDS011;58929;47.490;19.090;2022-12-07T05:22:08;31.70;;;18.05;;
71202;SDS011;58929;47.490;19.090;2022-12-07T05:24:36;27.77;;;17.92;;
71202;SDS011;58929;47.490;19.090;2022-12-07T05:27:07;25.50;;;17.60;;
71202;SDS011;58929;47.490;19.090;2022-12-07T05:29:35;35.33;;;22.00;;
71202;SDS011;58929;47.490;19.090;2022-12-07T05:32:04;30.60;;;20.35;;
71202;SDS011;58929;47.490;19.090;2022-12-07T05:34:32;31.42;;;19.25;;
71202;SDS011;58929;47.490;19.090;2022-12-07T05:39:27;26.08;;;15.48;;
71202;SDS011;58929;47.490;19.090;2022-12-07T05:41:55;32.33;;;20.02;;
71202;SDS011;58929;47.490;19.090;2022-12-07T05:44:42;32.45;;;21.33;;
71202;SDS011;58929;47.490;19.090;2022-12-07T05:47:11;35.80;;;22.00;;
71202;SDS011;58929;47.490;19.090;2022-12-07T05:49:39;40.78;;;22.92;;
71202;SDS011;58929;47.490;19.090;2022-12-07T05:52:07;41.63;;;24.83;;
71202;SDS011;58929;47.490;19.090;2022-12-07T05:54:35;41.65;;;24.95;;
71202;SDS011;58929;47.490;19.090;2022-12-07T05:59:31;46.85;;;25.35;;
71202;SDS011;58929;47.490;19.090;2022-12-07T06:01:59;43.28;;;26.02;;
71202;SDS011;58929;47.490;19.090;2022-12-07T06:04:30;52.45;;;25.63;;
71202;SDS011;58929;47.490;19.090;2022-12-07T06:06:58;44.78;;;24.67;;
71202;SDS011;58929;47.490;19.090;2022-12-07T06:09:27;35.25;;;23.05;;
71202;SDS011;58929;47.490;19.090;2022-12-07T06:11:55;44.00;;;23.40;;
71202;SDS011;58929;47.490;19.090;2022-12-07T06:14:42;38.28;;;22.77;;
71202;SDS011;58929;47.490;19.090;2022-12-07T06:17:11;32.97;;;21.67;;
71202;SDS011;58929;47.490;19.090;2022-12-07T06:19:40;39.33;;;22.33;;
71202;SDS011;58929;47.490;19.090;2022-12-07T06:22:08;34.38;;;20.77;;
71202;SDS011;58929;47.490;19.090;2022-12-07T06:24:38;34.42;;;20.73;;
71202;SDS011;58929;47.490;19.090;2022-12-07T06:27:06;31.15;;;21.23;;
71202;SDS011;58929;47.490;19.090;2022-12-07T06:29:34;35.88;;;22.08;;
71202;SDS011;58929;47.490;19.090;2022-12-07T06:32:02;38.88;;;22.40;;
71202;SDS011;58929;47.490;19.090;2022-12-07T06:34:31;47.50;;;28.45;;
71202;SDS011;58929;47.490;19.090;2022-12-07T06:37:00;92.63;;;53.55;;
71202;SDS011;58929;47.490;19.090;2022-12-07T06:39:28;68.00;;;41.63;;
71202;SDS011;58929;47.490;19.090;2022-12-07T06:41:56;51.65;;;31.95;;
71202;SDS011;58929;47.490;19.090;2022-12-07T06:44:24;47.10;;;27.23;;
71202;SDS011;58929;47.490;19.090;2022-12-07T06:46:52;41.00;;;24.58;;
71202;SDS011;58929;47.490;19.090;2022-12-07T06:49:40;36.58;;;21.90;;
71202;SDS011;58929;47.490;19.090;2022-12-07T06:52:09;37.03;;;21.42;;
71202;SDS011;58929;47.490;19.090;2022-12-07T06:54:37;31.77;;;21.17;;
71202;SDS011;58929;47.490;19.090;2022-12-07T06:57:05;34.13;;;22.27;;
71202;SDS011;58929;47.490;19.090;2022-12-07T06:59:33;35.58;;;22.27;;
71202;SDS011;58929;47.490;19.090;2022-12-07T07:02:01;34.13;;;22.40;;
71202;SDS011;58929;47.490;19.090;2022-12-07T07:04:29;37.25;;;22.52;;
71202;SDS011;58929;47.490;19.090;2022-12-07T07:06:58;40.25;;;23.20;;
71202;SDS011;58929;47.490;19.090;2022-12-07T07:09:28;35.45;;;22.13;;
71202;SDS011;58929;47.490;19.090;2022-12-07T07:11:55;45.42;;;24.75;;
71202;SDS011;58929;47.490;19.090;2022-12-07T07:14:23;41.70;;;24.38;;
71202;SDS011;58929;47.490;19.090;2022-12-07T07:16:51;34.38;;;23.08;;
71202;SDS011;58929;47.490;19.090;2022-12-07T07:19:19;35.47;;;24.17;;
71202;SDS011;58929;47.490;19.090;2022-12-07T07:21:47;36.42;;;23.75;;
71202;SDS011;58929;47.490;19.090;2022-12-07T07:24:15;39.55;;;24.67;;
71202;SDS011;58929;47.490;19.090;2022-12-07T07:26:44;38.10;;;23.48;;
71202;SDS011;58929;47.490;19.090;2022-12-07T07:29:12;34.65;;;23.63;;
71202;SDS011;58929;47.490;19.090;2022-12-07T07:31:40;38.08;;;23.58;;
71202;SDS011;58929;47.490;19.090;2022-12-07T07:34:08;50.53;;;29.42;;
71202;SDS011;58929;47.490;19.090;2022-12-07T07:36:36;35.53;;;22.50;;
71202;SDS011;58929;47.490;19.090;2022-12-07T07:39:04;36.80;;;23.27;;
71202;SDS011;58929;47.490;19.090;2022-12-07T07:41:32;35.42;;;22.40;;
71202;SDS011;58929;47.490;19.090;2022-12-07T07:44:02;34.63;;;22.73;;
71202;SDS011;58929;47.490;19.090;2022-12-07T07:46:30;33.33;;;22.90;;
71202;SDS011;58929;47.490;19.090;2022-12-07T07:48:59;38.63;;;24.58;;
71202;SDS011;58929;47.490;19.090;2022-12-07T07:51:30;34.63;;;22.77;;
71202;SDS011;58929;47.490;19.090;2022-12-07T07:53:58;37.88;;;25.13;;
71202;SDS011;58929;47.490;19.090;2022-12-07T07:56:26;41.20;;;27.15;;
71202;SDS011;58929;47.490;19.090;2022-12-07T07:58:54;42.80;;;23.38;;
71202;SDS011;58929;47.490;19.090;2022-12-07T08:01:24;45.72;;;25.02;;
71202;SDS011;58929;47.490;19.090;2022-12-07T08:03:52;39.63;;;24.77;;
71202;SDS011;58929;47.490;19.090;2022-12-07T08:06:20;41.85;;;22.40;;
71202;SDS011;58929;47.490;19.090;2022-12-07T08:08:54;40.70;;;24.92;;
71202;SDS011;58929;47.490;19.090;2022-12-07T08:11:24;44.45;;;28.02;;
71202;SDS011;58929;47.490;19.090;2022-12-07T08:13:52;39.40;;;24.05;;
71202;SDS011;58929;47.490;19.090;2022-12-07T08:16:20;36.08;;;23.42;;
71202;SDS011;58929;47.490;19.090;2022-12-07T08:18:49;39.97;;;24.70;;
71202;SDS011;58929;47.490;19.090;2022-12-07T08:21:17;34.28;;;21.95;;
71202;SDS011;58929;47.490;19.090;2022-12-07T08:23:45;39.55;;;24.80;;
71202;SDS011;58929;47.490;19.090;2022-12-07T08:26:14;40.10;;;24.83;;
71202;SDS011;58929;47.490;19.090;2022-12-07T08:28:42;38.22;;;24.27;;
71202;SDS011;58929;47.490;19.090;2022-12-07T08:31:12;58.53;;;37.83;;
71202;SDS011;58929;47.490;19.090;2022-12-07T08:33:41;40.45;;;25.52;;
71202;SDS011;58929;47.490;19.090;2022-12-07T08:36:11;38.78;;;25.35;;
71202;SDS011;58929;47.490;19.090;2022-12-07T08:38:41;41.22;;;25.55;;
71202;SDS011;58929;47.490;19.090;2022-12-07T08:41:28;37.23;;;23.93;;
71202;SDS011;58929;47.490;19.090;2022-12-07T08:43:57;34.90;;;23.85;;
71202;SDS011;58929;47.490;19.090;2022-12-07T08:46:25;38.42;;;24.83;;
71202;SDS011;58929;47.490;19.090;2022-12-07T08:48:55;49.97;;;25.08;;
71202;SDS011;58929;47.490;19.090;2022-12-07T08:51:26;38.67;;;24.95;;
71202;SDS011;58929;47.490;19.090;2022-12-07T08:53:54;37.33;;;24.73;;
71202;SDS011;58929;47.490;19.090;2022-12-07T08:56:23;38.22;;;24.08;;
71202;SDS011;58929;47.490;19.090;2022-12-07T08:58:51;34.08;;;22.17;;
71202;SDS011;58929;47.490;19.090;2022-12-07T09:01:20;36.85;;;22.88;;
71202;SDS011;58929;47.490;19.090;2022-12-07T09:03:48;33.85;;;21.88;;
71202;SDS011;58929;47.490;19.090;2022-12-07T09:06:15;30.55;;;21.33;;
71202;SDS011;58929;47.490;19.090;2022-12-07T09:08:46;31.50;;;22.60;;
71202;SDS011;58929;47.490;19.090;2022-12-07T09:11:15;35.83;;;22.30;;
71202;SDS011;58929;47.490;19.090;2022-12-07T09:13:43;36.83;;;24.17;;
71202;SDS011;58929;47.490;19.090;2022-12-07T09:16:10;28.98;;;20.20;;
71202;SDS011;58929;47.490;19.090;2022-12-07T09:18:38;33.30;;;20.85;;
71202;SDS011;58929;47.490;19.090;2022-12-07T09:23:34;35.08;;;23.02;;
71202;SDS011;58929;47.490;19.090;2022-12-07T09:28:37;49.00;;;29.88;;
71202;SDS011;58929;47.490;19.090;2022-12-07T09:31:05;38.65;;;25.38;;
71202;SDS011;58929;47.490;19.090;2022-12-07T09:33:53;39.40;;;25.02;;
71202;SDS011;58929;47.490;19.090;2022-12-07T09:36:21;45.22;;;27.20;;
71202;SDS011;58929;47.490;19.090;2022-12-07T09:38:49;44.63;;;27.60;;
71202;SDS011;58929;47.490;19.090;2022-12-07T09:41:17;45.35;;;26.40;;
71202;SDS011;58929;47.490;19.090;2022-12-07T09:43:46;37.22;;;21.90;;
71202;SDS011;58929;47.490;19.090;2022-12-07T09:46:15;33.38;;;23.40;;
71202;SDS011;58929;47.490;19.090;2022-12-07T09:48:45;19.70;;;15.00;;
71202;SDS011;58929;47.490;19.090;2022-12-07T09:51:16;15.25;;;11.35;;
71202;SDS011;58929;47.490;19.090;2022-12-07T09:53:50;13.15;;;10.90;;
71202;SDS011;58929;47.490;19.090;2022-12-07T09:56:18;15.00;;;10.13;;
71202;SDS011;58929;47.490;19.090;2022-12-07T09:58:48;12.05;;;9.43;;
71202;SDS011;58929;47.490;19.090;2022-12-07T10:01:17;10.65;;;8.85;;
71202;SDS011;58929;47.490;19.090;2022-12-07T10:03:48;12.95;;;9.55;;
71202;SDS011;58929;47.490;19.090;2022-12-07T10:06:17;21.60;;;14.32;;
71202;SDS011;58929;47.490;19.090;2022-12-07T10:08:45;26.63;;;16.13;;
71202;SDS011;58929;47.490;19.090;2022-12-07T10:11:14;28.50;;;15.77;;
71202;SDS011;58929;47.490;19.090;2022-12-07T10:13:43;23.65;;;15.60;;
71202;SDS011;58929;47.490;19.090;2022-12-07T10:16:27;25.17;;;17.80;;
71202;SDS011;58929;47.490;19.090;2022-12-07T10:19:01;28.33;;;15.90;;
71202;SDS011;58929;47.490;19.090;2022-12-07T10:21:58;27.77;;;18.25;;
71202;SDS011;58929;47.490;19.090;2022-12-07T10:24:27;27.95;;;20.27;;
71202;SDS011;58929;47.490;19.090;2022-12-07T10:26:55;21.35;;;14.30;;
71202;SDS011;58929;47.490;19.090;2022-12-07T10:29:24;31.30;;;20.15;;
71202;SDS011;58929;47.490;19.090;2022-12-07T10:31:54;25.48;;;19.58;;
71202;SDS011;58929;47.490;19.090;2022-12-07T10:34:24;26.77;;;18.30;;
71202;SDS011;58929;47.490;19.090;2022-12-07T10:36:53;27.30;;;19.35;;
71202;SDS011;58929;47.490;19.090;2022-12-07T10:39:21;46.92;;;27.92;;
71202;SDS011;58929;47.490;19.090;2022-12-07T10:41:53;25.80;;;18.90;;
71202;SDS011;58929;47.490;19.090;2022-12-07T10:44:22;27.48;;;17.70;;
71202;SDS011;58929;47.490;19.090;2022-12-07T10:46:57;23.45;;;17.48;;
71202;SDS011;58929;47.490;19.090;2022-12-07T10:49:33;24.77;;;18.88;;
71202;SDS011;58929;47.490;19.090;2022-12-07T10:52:07;25.17;;;18.33;;
71202;SDS011;58929;47.490;19.090;2022-12-07T10:54:40;39.15;;;25.33;;
71202;SDS011;58929;47.490;19.090;2022-12-07T11:00:18;25.92;;;16.90;;
71202;SDS011;58929;47.490;19.090;2022-12-07T11:05:32;18.30;;;11.05;;
71202;SDS011;58929;47.490;19.090;2022-12-07T11:08:05;10.25;;;7.70;;
71202;SDS011;58929;47.490;19.090;2022-12-07T11:10:39;11.88;;;8.57;;
71202;SDS011;58929;47.490;19.090;2022-12-07T11:15:58;9.02;;;7.45;;
71202;SDS011;58929;47.490;19.090;2022-12-07T11:18:27;11.68;;;8.02;;
71202;SDS011;58929;47.490;19.090;2022-12-07T11:20:59;11.32;;;8.70;;
71202;SDS011;58929;47.490;19.090;2022-12-07T11:23:35;12.75;;;7.68;;
71202;SDS011;58929;47.490;19.090;2022-12-07T11:26:08;11.68;;;8.57;;
71202;SDS011;58929;47.490;19.090;2022-12-07T11:28:47;11.25;;;8.23;;
71202;SDS011;58929;47.490;19.090;2022-12-07T11:31:20;12.73;;;8.73;;
71202;SDS011;58929;47.490;19.090;2022-12-07T11:33:56;11.40;;;7.97;;
71202;SDS011;58929;47.490;19.090;2022-12-07T11:36:32;12.57;;;8.05;;
71202;SDS011;58929;47.490;19.090;2022-12-07T11:39:02;12.43;;;8.82;;
71202;SDS011;58929;47.490;19.090;2022-12-07T11:41:31;11.82;;;8.20;;
71202;SDS011;58929;47.490;19.090;2022-12-07T11:44:06;12.68;;;8.80;;
71202;SDS011;58929;47.490;19.090;2022-12-07T11:46:39;15.13;;;9.05;;
71202;SDS011;58929;47.490;19.090;2022-12-07T11:49:13;10.00;;;7.72;;
71202;SDS011;58929;47.490;19.090;2022-12-07T11:51:43;11.20;;;7.78;;
71202;SDS011;58929;47.490;19.090;2022-12-07T11:54:13;11.13;;;8.38;;
71202;SDS011;58929;47.490;19.090;2022-12-07T11:56:42;13.43;;;8.75;;
71202;SDS011;58929;47.490;19.090;2022-12-07T11:59:12;11.73;;;8.55;;
71202;SDS011;58929;47.490;19.090;2022-12-07T12:01:48;12.25;;;8.45;;
71202;SDS011;58929;47.490;19.090;2022-12-07T12:04:22;15.95;;;8.10;;
71202;SDS011;58929;47.490;19.090;2022-12-07T12:06:52;11.70;;;7.68;;
71202;SDS011;58929;47.490;19.090;2022-12-07T12:09:23;12.52;;;8.85;;
71202;SDS011;58929;47.490;19.090;2022-12-07T12:12:12;15.50;;;10.48;;
71202;SDS011;58929;47.490;19.090;2022-12-07T12:15:08;12.80;;;8.23;;
71202;SDS011;58929;47.490;19.090;2022-12-07T12:20:15;12.45;;;8.27;;
71202;SDS011;58929;47.490;19.090;2022-12-07T12:22:47;11.35;;;8.88;;
71202;SDS011;58929;47.490;19.090;2022-12-07T12:25:19;12.88;;;8.38;;
71202;SDS011;58929;47.490;19.090;2022-12-07T12:27:48;12.77;;;8.38;;
71202;SDS011;58929;47.490;19.090;2022-12-07T12:30:25;14.98;;;7.35;;
71202;SDS011;58929;47.490;19.090;2022-12-07T12:32:54;11.48;;;8.60;;
71202;SDS011;58929;47.490;19.090;2022-12-07T12:35:30;18.25;;;8.00;;
71202;SDS011;58929;47.490;19.090;2022-12-07T12:40:46;12.20;;;7.88;;
71202;SDS011;58929;47.490;19.090;2022-12-07T12:48:46;9.10;;;7.53;;
71202;SDS011;58929;47.490;19.090;2022-12-07T12:54:03;16.80;;;8.73;;
71202;SDS011;58929;47.490;19.090;2022-12-07T12:56:35;16.20;;;9.07;;
71202;SDS011;58929;47.490;19.090;2022-12-07T12:59:25;27.63;;;9.00;;
71202;SDS011;58929;47.490;19.090;2022-12-07T13:01:55;11.35;;;8.45;;
71202;SDS011;58929;47.490;19.090;2022-12-07T13:04:38;11.88;;;8.80;;
71202;SDS011;58929;47.490;19.090;2022-12-07T13:07:10;12.18;;;9.25;;
71202;SDS011;58929;47.490;19.090;2022-12-07T13:09:39;16.25;;;8.30;;
71202;SDS011;58929;47.490;19.090;2022-12-07T13:12:13;12.65;;;9.25;;
71202;SDS011;58929;47.490;19.090;2022-12-07T13:14:55;13.48;;;9.52;;
71202;SDS011;58929;47.490;19.090;2022-12-07T13:20:39;26.95;;;10.02;;
71202;SDS011;58929;47.490;19.090;2022-12-07T13:23:01;23.75;;;10.02;;
71202;SDS011;58929;47.490;19.090;2022-12-07T13:28:16;12.93;;;9.95;;
71202;SDS011;58929;47.490;19.090;2022-12-07T13:30:46;20.33;;;9.60;;
71202;SDS011;58929;47.490;19.090;2022-12-07T13:33:15;16.35;;;10.77;;
71202;SDS011;58929;47.490;19.090;2022-12-07T13:35:44;14.55;;;9.02;;
71202;SDS011;58929;47.490;19.090;2022-12-07T13:38:19;10.50;;;8.35;;
71202;SDS011;58929;47.490;19.090;2022-12-07T13:40:59;15.02;;;9.10;;
71202;SDS011;58929;47.490;19.090;2022-12-07T13:43:28;17.70;;;8.75;;
71202;SDS011;58929;47.490;19.090;2022-12-07T13:45:58;9.95;;;8.30;;
71202;SDS011;58929;47.490;19.090;2022-12-07T13:48:28;10.18;;;7.97;;
71202;SDS011;58929;47.490;19.090;2022-12-07T13:50:59;16.30;;;10.43;;
71202;SDS011;58929;47.490;19.090;2022-12-07T13:53:28;28.77;;;17.08;;
71202;SDS011;58929;47.490;19.090;2022-12-07T13:55:58;15.65;;;9.20;;
71202;SDS011;58929;47.490;19.090;2022-12-07T13:58:26;14.05;;;8.20;;
71202;SDS011;58929;47.490;19.090;2022-12-07T14:00:56;14.13;;;8.63;;
71202;SDS011;58929;47.490;19.090;2022-12-07T14:03:28;12.50;;;8.30;;
71202;SDS011;58929;47.490;19.090;2022-12-07T14:06:13;16.88;;;8.85;;
71202;SDS011;58929;47.490;19.090;2022-12-07T14:08:42;14.02;;;8.88;;
71202;SDS011;58929;47.490;19.090;2022-12-07T14:11:11;12.45;;;8.45;;
71202;SDS011;58929;47.490;19.090;2022-12-07T14:13:51;11.20;;;8.55;;
71202;SDS011;58929;47.490;19.090;2022-12-07T14:16:24;15.85;;;8.90;;
71202;SDS011;58929;47.490;19.090;2022-12-07T14:18:54;12.77;;;9.32;;
71202;SDS011;58929;47.490;19.090;2022-12-07T14:21:23;13.25;;;9.70;;
71202;SDS011;58929;47.490;19.090;2022-12-07T14:26:46;14.10;;;8.65;;
71202;SDS011;58929;47.490;19.090;2022-12-07T14:29:31;14.77;;;9.57;;
71202;SDS011;58929;47.490;19.090;2022-12-07T14:32:13;13.15;;;9.32;;
71202;SDS011;58929;47.490;19.090;2022-12-07T14:34:52;15.88;;;9.57;;
71202;SDS011;58929;47.490;19.090;2022-12-07T14:37:20;12.30;;;9.70;;
71202;SDS011;58929;47.490;19.090;2022-12-07T14:39:48;13.25;;;9.27;;
71202;SDS011;58929;47.490;19.090;2022-12-07T14:42:16;15.82;;;9.80;;
71202;SDS011;58929;47.490;19.090;2022-12-07T14:44:44;16.73;;;10.48;;
71202;SDS011;58929;47.490;19.090;2022-12-07T14:47:13;15.93;;;10.55;;
71202;SDS011;58929;47.490;19.090;2022-12-07T14:50:01;32.40;;;16.48;;
71202;SDS011;58929;47.490;19.090;2022-12-07T14:52:32;21.23;;;10.80;;
71202;SDS011;58929;47.490;19.090;2022-12-07T14:55:22;14.00;;;9.77;;
71202;SDS011;58929;47.490;19.090;2022-12-07T14:57:51;15.45;;;10.48;;
71202;SDS011;58929;47.490;19.090;2022-12-07T15:00:20;21.55;;;11.05;;
71202;SDS011;58929;47.490;19.090;2022-12-07T15:02:49;18.20;;;11.07;;
71202;SDS011;58929;47.490;19.090;2022-12-07T15:05:18;16.27;;;10.27;;
71202;SDS011;58929;47.490;19.090;2022-12-07T15:07:46;18.45;;;10.32;;
71202;SDS011;58929;47.490;19.090;2022-12-07T15:10:16;16.42;;;10.57;;
71202;SDS011;58929;47.490;19.090;2022-12-07T15:12:50;14.55;;;9.77;;
71202;SDS011;58929;47.490;19.090;2022-12-07T15:17:45;14.15;;;9.70;;
71202;SDS011;58929;47.490;19.090;2022-12-07T15:20:15;12.23;;;9.23;;
71202;SDS011;58929;47.490;19.090;2022-12-07T15:22:44;21.27;;;10.35;;
71202;SDS011;58929;47.490;19.090;2022-12-07T15:25:12;18.00;;;10.90;;
71202;SDS011;58929;47.490;19.090;2022-12-07T15:27:40;17.35;;;10.38;;
71202;SDS011;58929;47.490;19.090;2022-12-07T15:30:08;14.23;;;10.75;;
71202;SDS011;58929;47.490;19.090;2022-12-07T15:32:36;16.80;;;10.90;;
71202;SDS011;58929;47.490;19.090;2022-12-07T15:35:05;17.13;;;10.60;;
71202;SDS011;58929;47.490;19.090;2022-12-07T15:37:35;19.15;;;10.52;;
71202;SDS011;58929;47.490;19.090;2022-12-07T15:40:04;20.40;;;11.90;;
71202;SDS011;58929;47.490;19.090;2022-12-07T15:42:33;16.35;;;11.38;;
71202;SDS011;58929;47.490;19.090;2022-12-07T15:45:02;17.73;;;11.73;;
71202;SDS011;58929;47.490;19.090;2022-12-07T15:47:33;18.27;;;10.82;;